sensor_id;sensor_type;location;lat;lon;timestamp;P1;durP1;ratioP1;P2;durP2;ratioP2
17993;SDS011;9122;48.406;9.984;2022-11-04T00:01:21;5.57;;;5.07;;
17993;SDS011;9122;48.406;9.984;2022-11-04T00:04:06;6.50;;;5.90;;
17993;SDS011;9122;48.406;9.984;2022-11-04T00:06:51;6.93;;;6.20;;
17993;SDS011;9122;48.406;9.984;2022-11-04T00:09:37;6.80;;;5.73;;
17993;SDS011;9122;48.406;9.984;2022-11-04T00:12:21;5.20;;;4.80;;
17993;SDS011;9122;48.406;9.984;2022-11-04T00:15:08;5.67;;;5.13;;
17993;SDS011;9122;48.406;9.984;2022-11-04T00:18:30;5.37;;;4.87;;
17993;SDS011;9122;48.406;9.984;2022-11-04T00:21:15;5.97;;;5.37;;
17993;SDS011;9122;48.406;9.984;2022-11-04T00:24:18;5.13;;;4.73;;
17993;SDS011;9122;48.406;9.984;2022-11-04T00:27:21;5.30;;;4.80;;
17993;SDS011;9122;48.406;9.984;2022-11-04T00:30:25;5.57;;;5.03;;
17993;SDS011;9122;48.406;9.984;2022-11-04T00:33:09;7.00;;;5.80;;
17993;SDS011;9122;48.406;9.984;2022-11-04T00:36:09;5.73;;;4.93;;
17993;SDS011;9122;48.406;9.984;2022-11-04T00:38:53;5.67;;;5.17;;
17993;SDS011;9122;48.406;9.984;2022-11-04T00:41:38;7.80;;;5.63;;
17993;SDS011;9122;48.406;9.984;2022-11-04T00:44:22;6.00;;;5.23;;
17993;SDS011;9122;48.406;9.984;2022-11-04T00:47:06;5.97;;;5.47;;
17993;SDS011;9122;48.406;9.984;2022-11-04T00:49:50;5.67;;;5.27;;
17993;SDS011;9122;48.406;9.984;2022-11-04T00:52:36;6.23;;;5.10;;
17993;SDS011;9122;48.406;9.984;2022-11-04T00:55:20;6.67;;;6.00;;
17993;SDS011;9122;48.406;9.984;2022-11-04T00:58:04;6.93;;;6.23;;
17993;SDS011;9122;48.406;9.984;2022-11-04T01:00:48;7.17;;;6.47;;
17993;SDS011;9122;48.406;9.984;2022-11-04T01:03:33;5.50;;;5.00;;
17993;SDS011;9122;48.406;9.984;2022-11-04T01:06:17;5.53;;;5.03;;
17993;SDS011;9122;48.406;9.984;2022-11-04T01:09:04;5.63;;;5.07;;
17993;SDS011;9122;48.406;9.984;2022-11-04T01:11:53;4.47;;;4.07;;
17993;SDS011;9122;48.406;9.984;2022-11-04T01:14:37;3.60;;;3.30;;
17993;SDS011;9122;48.406;9.984;2022-11-04T01:17:21;4.17;;;3.77;;
17993;SDS011;9122;48.406;9.984;2022-11-04T01:20:06;4.00;;;3.63;;
17993;SDS011;9122;48.406;9.984;2022-11-04T01:22:51;3.93;;;3.53;;
17993;SDS011;9122;48.406;9.984;2022-11-04T01:25:38;4.33;;;3.30;;
17993;SDS011;9122;48.406;9.984;2022-11-04T01:28:25;3.07;;;2.87;;
17993;SDS011;9122;48.406;9.984;2022-11-04T01:31:10;4.67;;;3.07;;
17993;SDS011;9122;48.406;9.984;2022-11-04T01:33:57;5.27;;;3.40;;
17993;SDS011;9122;48.406;9.984;2022-11-04T01:36:42;3.20;;;2.90;;
17993;SDS011;9122;48.406;9.984;2022-11-04T01:39:26;3.33;;;3.10;;
17993;SDS011;9122;48.406;9.984;2022-11-04T01:42:12;3.10;;;2.80;;
17993;SDS011;9122;48.406;9.984;2022-11-04T01:44:58;2.83;;;2.60;;
17993;SDS011;9122;48.406;9.984;2022-11-04T01:47:45;2.23;;;2.13;;
17993;SDS011;9122;48.406;9.984;2022-11-04T01:50:42;2.67;;;2.47;;
17993;SDS011;9122;48.406;9.984;2022-11-04T01:53:29;2.47;;;2.23;;
17993;SDS011;9122;48.406;9.984;2022-11-04T01:56:17;2.83;;;2.63;;
17993;SDS011;9122;48.406;9.984;2022-11-04T01:59:11;2.63;;;2.43;;
17993;SDS011;9122;48.406;9.984;2022-11-04T02:02:06;3.30;;;3.00;;
17993;SDS011;9122;48.406;9.984;2022-11-04T02:04:50;3.30;;;3.00;;
17993;SDS011;9122;48.406;9.984;2022-11-04T02:07:35;3.63;;;3.30;;
17993;SDS011;9122;48.406;9.984;2022-11-04T02:10:21;3.00;;;2.73;;
17993;SDS011;9122;48.406;9.984;2022-11-04T02:13:09;3.77;;;3.03;;
17993;SDS011;9122;48.406;9.984;2022-11-04T02:22:02;2.70;;;2.50;;
17993;SDS011;9122;48.406;9.984;2022-11-04T02:25:03;4.27;;;2.90;;
17993;SDS011;9122;48.406;9.984;2022-11-04T02:37:07;2.43;;;2.10;;
17993;SDS011;9122;48.406;9.984;2022-11-04T02:40:27;2.47;;;2.27;;
17993;SDS011;9122;48.406;9.984;2022-11-04T02:43:24;2.50;;;2.33;;
17993;SDS011;9122;48.406;9.984;2022-11-04T02:46:30;3.40;;;2.53;;
17993;SDS011;9122;48.406;9.984;2022-11-04T02:49:25;2.23;;;2.13;;
17993;SDS011;9122;48.406;9.984;2022-11-04T02:52:35;2.93;;;2.73;;
17993;SDS011;9122;48.406;9.984;2022-11-04T02:55:26;3.00;;;2.70;;
17993;SDS011;9122;48.406;9.984;2022-11-04T02:58:17;3.10;;;2.83;;
17993;SDS011;9122;48.406;9.984;2022-11-04T03:01:06;3.00;;;2.80;;
17993;SDS011;9122;48.406;9.984;2022-11-04T03:04:02;2.70;;;2.57;;
17993;SDS011;9122;48.406;9.984;2022-11-04T03:06:57;3.07;;;2.87;;
17993;SDS011;9122;48.406;9.984;2022-11-04T03:09:46;3.00;;;2.80;;
17993;SDS011;9122;48.406;9.984;2022-11-04T03:12:42;3.53;;;3.23;;
17993;SDS011;9122;48.406;9.984;2022-11-04T03:15:51;2.90;;;2.63;;
17993;SDS011;9122;48.406;9.984;2022-11-04T03:21:27;2.90;;;2.47;;
17993;SDS011;9122;48.406;9.984;2022-11-04T03:24:14;2.60;;;2.40;;
17993;SDS011;9122;48.406;9.984;2022-11-04T03:27:00;2.50;;;2.27;;
17993;SDS011;9122;48.406;9.984;2022-11-04T03:35:42;2.60;;;2.40;;
17993;SDS011;9122;48.406;9.984;2022-11-04T03:38:26;2.07;;;1.97;;
17993;SDS011;9122;48.406;9.984;2022-11-04T03:41:13;2.27;;;2.07;;
17993;SDS011;9122;48.406;9.984;2022-11-04T03:44:07;2.90;;;2.30;;
17993;SDS011;9122;48.406;9.984;2022-11-04T03:46:51;1.40;;;1.30;;
17993;SDS011;9122;48.406;9.984;2022-11-04T03:49:37;1.33;;;1.20;;
17993;SDS011;9122;48.406;9.984;2022-11-04T03:52:21;0.70;;;0.70;;
17993;SDS011;9122;48.406;9.984;2022-11-04T03:55:06;0.70;;;0.70;;
17993;SDS011;9122;48.406;9.984;2022-11-04T03:57:54;0.57;;;0.57;;
17993;SDS011;9122;48.406;9.984;2022-11-04T04:00:48;0.50;;;0.50;;
17993;SDS011;9122;48.406;9.984;2022-11-04T04:07:03;0.63;;;0.60;;
17993;SDS011;9122;48.406;9.984;2022-11-04T04:09:54;1.20;;;1.00;;
17993;SDS011;9122;48.406;9.984;2022-11-04T04:15:53;0.70;;;0.60;;
17993;SDS011;9122;48.406;9.984;2022-11-04T04:18:39;0.50;;;0.40;;
17993;SDS011;9122;48.406;9.984;2022-11-04T04:21:46;0.67;;;0.40;;
17993;SDS011;9122;48.406;9.984;2022-11-04T04:24:38;0.40;;;0.40;;
17993;SDS011;9122;48.406;9.984;2022-11-04T04:27:44;1.17;;;0.50;;
17993;SDS011;9122;48.406;9.984;2022-11-04T04:30:31;0.30;;;0.30;;
17993;SDS011;9122;48.406;9.984;2022-11-04T04:33:17;0.30;;;0.30;;
17993;SDS011;9122;48.406;9.984;2022-11-04T04:36:02;0.60;;;0.50;;
17993;SDS011;9122;48.406;9.984;2022-11-04T04:38:48;0.50;;;0.50;;
17993;SDS011;9122;48.406;9.984;2022-11-04T04:41:51;0.60;;;0.50;;
17993;SDS011;9122;48.406;9.984;2022-11-04T04:44:56;0.50;;;0.50;;
17993;SDS011;9122;48.406;9.984;2022-11-04T04:47:46;1.23;;;0.40;;
17993;SDS011;9122;48.406;9.984;2022-11-04T04:50:32;0.50;;;0.50;;
17993;SDS011;9122;48.406;9.984;2022-11-04T04:53:20;0.30;;;0.30;;
17993;SDS011;9122;48.406;9.984;2022-11-04T04:56:04;0.90;;;0.50;;
17993;SDS011;9122;48.406;9.984;2022-11-04T04:58:48;0.53;;;0.53;;
17993;SDS011;9122;48.406;9.984;2022-11-04T05:01:32;0.67;;;0.50;;
17993;SDS011;9122;48.406;9.984;2022-11-04T05:04:16;1.10;;;0.60;;
17993;SDS011;9122;48.406;9.984;2022-11-04T05:07:00;0.70;;;0.70;;
17993;SDS011;9122;48.406;9.984;2022-11-04T05:09:44;0.53;;;0.53;;
17993;SDS011;9122;48.406;9.984;2022-11-04T05:12:28;0.57;;;0.57;;
17993;SDS011;9122;48.406;9.984;2022-11-04T05:15:33;0.93;;;0.70;;
17993;SDS011;9122;48.406;9.984;2022-11-04T05:18:18;0.53;;;0.53;;
17993;SDS011;9122;48.406;9.984;2022-11-04T05:21:03;0.73;;;0.70;;
17993;SDS011;9122;48.406;9.984;2022-11-04T05:23:49;0.80;;;0.73;;
17993;SDS011;9122;48.406;9.984;2022-11-04T05:26:33;0.97;;;0.67;;
17993;SDS011;9122;48.406;9.984;2022-11-04T05:29:17;2.17;;;0.90;;
17993;SDS011;9122;48.406;9.984;2022-11-04T05:32:01;0.70;;;0.70;;
17993;SDS011;9122;48.406;9.984;2022-11-04T05:34:46;1.17;;;1.07;;
17993;SDS011;9122;48.406;9.984;2022-11-04T05:37:31;1.40;;;0.90;;
17993;SDS011;9122;48.406;9.984;2022-11-04T05:40:16;1.53;;;1.30;;
17993;SDS011;9122;48.406;9.984;2022-11-04T05:43:00;1.50;;;0.70;;
17993;SDS011;9122;48.406;9.984;2022-11-04T05:45:44;0.80;;;0.80;;
17993;SDS011;9122;48.406;9.984;2022-11-04T05:48:29;0.70;;;0.70;;
17993;SDS011;9122;48.406;9.984;2022-11-04T05:51:14;0.73;;;0.73;;
17993;SDS011;9122;48.406;9.984;2022-11-04T05:54:01;1.43;;;1.00;;
17993;SDS011;9122;48.406;9.984;2022-11-04T05:56:45;0.70;;;0.70;;
17993;SDS011;9122;48.406;9.984;2022-11-04T05:59:29;1.13;;;0.70;;
17993;SDS011;9122;48.406;9.984;2022-11-04T06:02:13;2.10;;;1.10;;
17993;SDS011;9122;48.406;9.984;2022-11-04T06:04:58;3.97;;;2.07;;
17993;SDS011;9122;48.406;9.984;2022-11-04T06:07:42;2.97;;;1.27;;
17993;SDS011;9122;48.406;9.984;2022-11-04T06:10:26;2.60;;;1.17;;
17993;SDS011;9122;48.406;9.984;2022-11-04T06:13:10;3.30;;;1.87;;
17993;SDS011;9122;48.406;9.984;2022-11-04T06:15:54;6.47;;;2.73;;
17993;SDS011;9122;48.406;9.984;2022-11-04T06:18:39;1.83;;;1.53;;
17993;SDS011;9122;48.406;9.984;2022-11-04T06:21:27;2.43;;;1.60;;
17993;SDS011;9122;48.406;9.984;2022-11-04T06:24:16;1.80;;;1.13;;
17993;SDS011;9122;48.406;9.984;2022-11-04T06:27:00;1.53;;;1.43;;
17993;SDS011;9122;48.406;9.984;2022-11-04T06:29:44;3.17;;;1.50;;
17993;SDS011;9122;48.406;9.984;2022-11-04T06:32:29;3.23;;;1.77;;
17993;SDS011;9122;48.406;9.984;2022-11-04T06:35:14;1.33;;;1.10;;
17993;SDS011;9122;48.406;9.984;2022-11-04T06:37:59;2.10;;;1.50;;
17993;SDS011;9122;48.406;9.984;2022-11-04T06:40:43;2.23;;;1.67;;
17993;SDS011;9122;48.406;9.984;2022-11-04T06:43:27;2.13;;;1.40;;
17993;SDS011;9122;48.406;9.984;2022-11-04T06:49:20;1.83;;;1.20;;
17993;SDS011;9122;48.406;9.984;2022-11-04T06:52:08;1.57;;;1.47;;
17993;SDS011;9122;48.406;9.984;2022-11-04T06:54:58;2.03;;;1.40;;
17993;SDS011;9122;48.406;9.984;2022-11-04T06:57:43;2.13;;;1.30;;
17993;SDS011;9122;48.406;9.984;2022-11-04T07:00:27;1.77;;;1.60;;
17993;SDS011;9122;48.406;9.984;2022-11-04T07:03:11;1.67;;;1.47;;
17993;SDS011;9122;48.406;9.984;2022-11-04T07:05:55;1.50;;;1.40;;
17993;SDS011;9122;48.406;9.984;2022-11-04T07:08:39;1.70;;;1.60;;
17993;SDS011;9122;48.406;9.984;2022-11-04T07:11:23;2.10;;;1.60;;
17993;SDS011;9122;48.406;9.984;2022-11-04T07:14:09;2.27;;;1.90;;
17993;SDS011;9122;48.406;9.984;2022-11-04T07:16:53;2.17;;;1.97;;
17993;SDS011;9122;48.406;9.984;2022-11-04T07:19:37;2.47;;;2.10;;
17993;SDS011;9122;48.406;9.984;2022-11-04T07:22:22;2.60;;;2.40;;
17993;SDS011;9122;48.406;9.984;2022-11-04T07:25:06;2.77;;;2.57;;
17993;SDS011;9122;48.406;9.984;2022-11-04T07:27:51;4.47;;;2.70;;
17993;SDS011;9122;48.406;9.984;2022-11-04T07:30:36;2.93;;;2.73;;
17993;SDS011;9122;48.406;9.984;2022-11-04T07:33:20;3.27;;;3.00;;
17993;SDS011;9122;48.406;9.984;2022-11-04T07:36:10;2.70;;;2.50;;
17993;SDS011;9122;48.406;9.984;2022-11-04T07:38:56;3.17;;;2.60;;
17993;SDS011;9122;48.406;9.984;2022-11-04T07:41:40;4.13;;;2.80;;
17993;SDS011;9122;48.406;9.984;2022-11-04T07:44:25;2.57;;;2.37;;
17993;SDS011;9122;48.406;9.984;2022-11-04T07:47:10;2.40;;;2.20;;
17993;SDS011;9122;48.406;9.984;2022-11-04T07:49:54;2.70;;;2.50;;
17993;SDS011;9122;48.406;9.984;2022-11-04T07:52:39;2.77;;;2.57;;
17993;SDS011;9122;48.406;9.984;2022-11-04T07:55:24;2.07;;;1.97;;
17993;SDS011;9122;48.406;9.984;2022-11-04T07:58:08;2.70;;;2.50;;
17993;SDS011;9122;48.406;9.984;2022-11-04T08:01:00;2.60;;;2.40;;
17993;SDS011;9122;48.406;9.984;2022-11-04T08:03:50;1.93;;;1.83;;
17993;SDS011;9122;48.406;9.984;2022-11-04T08:06:35;2.40;;;1.70;;
17993;SDS011;9122;48.406;9.984;2022-11-04T08:09:20;1.80;;;1.70;;
17993;SDS011;9122;48.406;9.984;2022-11-04T08:12:05;1.97;;;1.87;;
17993;SDS011;9122;48.406;9.984;2022-11-04T08:14:50;1.80;;;1.70;;
17993;SDS011;9122;48.406;9.984;2022-11-04T08:17:35;2.30;;;2.17;;
17993;SDS011;9122;48.406;9.984;2022-11-04T08:20:19;1.60;;;1.50;;
17993;SDS011;9122;48.406;9.984;2022-11-04T08:23:04;2.23;;;2.03;;
17993;SDS011;9122;48.406;9.984;2022-11-04T08:25:48;1.97;;;1.87;;
17993;SDS011;9122;48.406;9.984;2022-11-04T08:28:32;2.03;;;1.93;;
17993;SDS011;9122;48.406;9.984;2022-11-04T08:31:19;2.50;;;2.30;;
17993;SDS011;9122;48.406;9.984;2022-11-04T08:34:07;2.40;;;2.30;;
17993;SDS011;9122;48.406;9.984;2022-11-04T08:36:51;2.93;;;2.40;;
17993;SDS011;9122;48.406;9.984;2022-11-04T08:39:36;2.50;;;2.30;;
17993;SDS011;9122;48.406;9.984;2022-11-04T08:42:20;3.80;;;2.33;;
17993;SDS011;9122;48.406;9.984;2022-11-04T08:45:05;2.53;;;2.33;;
17993;SDS011;9122;48.406;9.984;2022-11-04T08:47:49;2.57;;;2.37;;
17993;SDS011;9122;48.406;9.984;2022-11-04T08:50:34;2.40;;;2.20;;
17993;SDS011;9122;48.406;9.984;2022-11-04T08:53:18;2.70;;;2.50;;
17993;SDS011;9122;48.406;9.984;2022-11-04T08:56:13;2.63;;;2.27;;
17993;SDS011;9122;48.406;9.984;2022-11-04T08:59:03;2.20;;;2.00;;
17993;SDS011;9122;48.406;9.984;2022-11-04T09:01:48;2.20;;;2.10;;
17993;SDS011;9122;48.406;9.984;2022-11-04T09:04:33;1.80;;;1.70;;
17993;SDS011;9122;48.406;9.984;2022-11-04T09:07:17;1.70;;;1.60;;
17993;SDS011;9122;48.406;9.984;2022-11-04T09:10:02;2.73;;;2.00;;
17993;SDS011;9122;48.406;9.984;2022-11-04T09:12:48;2.13;;;1.70;;
17993;SDS011;9122;48.406;9.984;2022-11-04T09:15:32;1.90;;;1.80;;
17993;SDS011;9122;48.406;9.984;2022-11-04T09:18:16;2.33;;;1.70;;
17993;SDS011;9122;48.406;9.984;2022-11-04T09:21:01;1.87;;;1.77;;
17993;SDS011;9122;48.406;9.984;2022-11-04T09:23:47;2.63;;;2.13;;
17993;SDS011;9122;48.406;9.984;2022-11-04T09:26:32;2.80;;;2.20;;
17993;SDS011;9122;48.406;9.984;2022-11-04T09:29:16;2.07;;;1.90;;
17993;SDS011;9122;48.406;9.984;2022-11-04T09:32:03;2.07;;;1.97;;
17993;SDS011;9122;48.406;9.984;2022-11-04T09:34:48;2.00;;;1.90;;
17993;SDS011;9122;48.406;9.984;2022-11-04T09:37:32;3.23;;;2.27;;
17993;SDS011;9122;48.406;9.984;2022-11-04T09:40:18;2.13;;;2.03;;
17993;SDS011;9122;48.406;9.984;2022-11-04T09:45:56;1.90;;;1.80;;
17993;SDS011;9122;48.406;9.984;2022-11-04T09:48:49;2.17;;;1.97;;
17993;SDS011;9122;48.406;9.984;2022-11-04T09:51:37;2.20;;;2.10;;
17993;SDS011;9122;48.406;9.984;2022-11-04T09:57:24;3.00;;;2.80;;
17993;SDS011;9122;48.406;9.984;2022-11-04T10:00:13;3.60;;;3.40;;
17993;SDS011;9122;48.406;9.984;2022-11-04T10:08:51;4.63;;;4.33;;
17993;SDS011;9122;48.406;9.984;2022-11-04T10:24:34;6.50;;;6.00;;
17993;SDS011;9122;48.406;9.984;2022-11-04T10:27:26;6.33;;;5.17;;
17993;SDS011;9122;48.406;9.984;2022-11-04T10:33:09;5.43;;;4.93;;
17993;SDS011;9122;48.406;9.984;2022-11-04T10:36:03;3.80;;;3.43;;
17993;SDS011;9122;48.406;9.984;2022-11-04T10:38:51;2.83;;;2.63;;
17993;SDS011;9122;48.406;9.984;2022-11-04T10:41:39;2.67;;;2.50;;
17993;SDS011;9122;48.406;9.984;2022-11-04T10:44:25;2.07;;;1.97;;
17993;SDS011;9122;48.406;9.984;2022-11-04T10:47:21;2.47;;;2.27;;
17993;SDS011;9122;48.406;9.984;2022-11-04T10:50:34;2.37;;;2.10;;
17993;SDS011;9122;48.406;9.984;2022-11-04T10:59:27;1.93;;;1.67;;
17993;SDS011;9122;48.406;9.984;2022-11-04T11:02:14;2.10;;;1.60;;
17993;SDS011;9122;48.406;9.984;2022-11-04T11:05:11;1.93;;;1.80;;
17993;SDS011;9122;48.406;9.984;2022-11-04T11:07:57;1.37;;;1.27;;
17993;SDS011;9122;48.406;9.984;2022-11-04T11:10:41;2.00;;;1.53;;
17993;SDS011;9122;48.406;9.984;2022-11-04T11:13:35;1.47;;;1.27;;
17993;SDS011;9122;48.406;9.984;2022-11-04T11:16:24;1.57;;;1.47;;
17993;SDS011;9122;48.406;9.984;2022-11-04T11:21:55;1.90;;;1.80;;
17993;SDS011;9122;48.406;9.984;2022-11-04T11:24:39;2.10;;;1.90;;
17993;SDS011;9122;48.406;9.984;2022-11-04T11:27:24;3.20;;;1.90;;
17993;SDS011;9122;48.406;9.984;2022-11-04T11:30:17;2.30;;;1.97;;
17993;SDS011;9122;48.406;9.984;2022-11-04T11:33:14;2.50;;;1.57;;
17993;SDS011;9122;48.406;9.984;2022-11-04T11:36:15;1.73;;;1.60;;
17993;SDS011;9122;48.406;9.984;2022-11-04T11:39:03;1.40;;;1.20;;
17993;SDS011;9122;48.406;9.984;2022-11-04T11:44:50;1.97;;;1.60;;
17993;SDS011;9122;48.406;9.984;2022-11-04T11:47:37;1.50;;;1.40;;
17993;SDS011;9122;48.406;9.984;2022-11-04T11:50:26;1.60;;;1.37;;
17993;SDS011;9122;48.406;9.984;2022-11-04T11:53:17;2.00;;;1.27;;
17993;SDS011;9122;48.406;9.984;2022-11-04T12:02:16;1.30;;;1.20;;
17993;SDS011;9122;48.406;9.984;2022-11-04T12:05:04;3.10;;;1.07;;
17993;SDS011;9122;48.406;9.984;2022-11-04T12:07:55;1.20;;;1.00;;
17993;SDS011;9122;48.406;9.984;2022-11-04T12:10:47;1.50;;;1.13;;
17993;SDS011;9122;48.406;9.984;2022-11-04T12:13:43;1.13;;;1.13;;
17993;SDS011;9122;48.406;9.984;2022-11-04T12:16:39;1.50;;;1.07;;
17993;SDS011;9122;48.406;9.984;2022-11-04T12:26:04;1.73;;;1.60;;
17993;SDS011;9122;48.406;9.984;2022-11-04T12:46:56;2.23;;;1.07;;
17993;SDS011;9122;48.406;9.984;2022-11-04T12:56:17;0.97;;;0.80;;
17993;SDS011;9122;48.406;9.984;2022-11-04T13:02:48;2.03;;;1.03;;
17993;SDS011;9122;48.406;9.984;2022-11-04T13:05:52;1.80;;;1.00;;
17993;SDS011;9122;48.406;9.984;2022-11-04T13:11:49;4.37;;;1.00;;
17993;SDS011;9122;48.406;9.984;2022-11-04T13:14:50;1.70;;;0.97;;
17993;SDS011;9122;48.406;9.984;2022-11-04T13:17:39;1.43;;;1.20;;
17993;SDS011;9122;48.406;9.984;2022-11-04T13:20:32;3.77;;;1.40;;
17993;SDS011;9122;48.406;9.984;2022-11-04T13:23:28;1.47;;;1.37;;
17993;SDS011;9122;48.406;9.984;2022-11-04T13:26:35;1.53;;;1.27;;
17993;SDS011;9122;48.406;9.984;2022-11-04T13:29:19;1.73;;;1.20;;
17993;SDS011;9122;48.406;9.984;2022-11-04T13:32:10;1.47;;;1.37;;
17993;SDS011;9122;48.406;9.984;2022-11-04T13:35:21;0.93;;;0.93;;
17993;SDS011;9122;48.406;9.984;2022-11-04T13:44:17;2.60;;;1.50;;
17993;SDS011;9122;48.406;9.984;2022-11-04T13:52:47;1.57;;;1.47;;
17993;SDS011;9122;48.406;9.984;2022-11-04T13:55:32;3.73;;;1.63;;
17993;SDS011;9122;48.406;9.984;2022-11-04T13:58:27;4.17;;;1.53;;
17993;SDS011;9122;48.406;9.984;2022-11-04T14:01:16;3.60;;;1.60;;
17993;SDS011;9122;48.406;9.984;2022-11-04T14:04:27;1.60;;;1.50;;
17993;SDS011;9122;48.406;9.984;2022-11-04T14:07:14;3.60;;;1.40;;
17993;SDS011;9122;48.406;9.984;2022-11-04T14:10:00;1.60;;;1.50;;
17993;SDS011;9122;48.406;9.984;2022-11-04T14:12:46;3.13;;;1.73;;
17993;SDS011;9122;48.406;9.984;2022-11-04T14:21:30;2.80;;;1.80;;
17993;SDS011;9122;48.406;9.984;2022-11-04T14:24:59;2.53;;;1.30;;
17993;SDS011;9122;48.406;9.984;2022-11-04T14:27:46;1.10;;;1.10;;
17993;SDS011;9122;48.406;9.984;2022-11-04T14:30:36;1.57;;;1.10;;
17993;SDS011;9122;48.406;9.984;2022-11-04T14:33:32;1.43;;;1.10;;
17993;SDS011;9122;48.406;9.984;2022-11-04T14:36:37;4.63;;;1.90;;
17993;SDS011;9122;48.406;9.984;2022-11-04T14:39:24;1.90;;;1.63;;
17993;SDS011;9122;48.406;9.984;2022-11-04T14:42:14;1.80;;;1.70;;
17993;SDS011;9122;48.406;9.984;2022-11-04T14:45:38;1.80;;;1.70;;
17993;SDS011;9122;48.406;9.984;2022-11-04T14:48:23;2.53;;;2.10;;
17993;SDS011;9122;48.406;9.984;2022-11-04T14:51:16;2.20;;;2.00;;
17993;SDS011;9122;48.406;9.984;2022-11-04T14:54:11;1.50;;;1.40;;
17993;SDS011;9122;48.406;9.984;2022-11-04T14:57:14;1.60;;;1.20;;
17993;SDS011;9122;48.406;9.984;2022-11-04T15:06:01;1.93;;;1.70;;
17993;SDS011;9122;48.406;9.984;2022-11-04T15:08:48;1.60;;;1.50;;
17993;SDS011;9122;48.406;9.984;2022-11-04T15:11:38;1.53;;;1.43;;
17993;SDS011;9122;48.406;9.984;2022-11-04T15:14:41;2.83;;;1.63;;
17993;SDS011;9122;48.406;9.984;2022-11-04T15:17:29;3.10;;;1.73;;
17993;SDS011;9122;48.406;9.984;2022-11-04T15:20:22;3.60;;;1.77;;
17993;SDS011;9122;48.406;9.984;2022-11-04T15:23:11;7.37;;;1.70;;
17993;SDS011;9122;48.406;9.984;2022-11-04T15:25:59;2.30;;;1.57;;
17993;SDS011;9122;48.406;9.984;2022-11-04T15:28:45;1.53;;;1.43;;
17993;SDS011;9122;48.406;9.984;2022-11-04T15:31:31;2.70;;;1.60;;
17993;SDS011;9122;48.406;9.984;2022-11-04T15:34:16;2.20;;;2.00;;
17993;SDS011;9122;48.406;9.984;2022-11-04T15:37:02;1.67;;;1.57;;
17993;SDS011;9122;48.406;9.984;2022-11-04T15:39:52;2.10;;;1.90;;
17993;SDS011;9122;48.406;9.984;2022-11-04T15:42:41;3.23;;;2.13;;
17993;SDS011;9122;48.406;9.984;2022-11-04T15:45:28;2.07;;;1.63;;
17993;SDS011;9122;48.406;9.984;2022-11-04T15:48:32;1.67;;;1.57;;
17993;SDS011;9122;48.406;9.984;2022-11-04T15:51:23;2.30;;;1.87;;
17993;SDS011;9122;48.406;9.984;2022-11-04T15:54:21;2.10;;;1.60;;
17993;SDS011;9122;48.406;9.984;2022-11-04T15:57:16;2.50;;;2.30;;
17993;SDS011;9122;48.406;9.984;2022-11-04T16:00:07;2.93;;;2.40;;
17993;SDS011;9122;48.406;9.984;2022-11-04T16:02:58;1.80;;;1.70;;
17993;SDS011;9122;48.406;9.984;2022-11-04T16:05:43;3.30;;;2.20;;
17993;SDS011;9122;48.406;9.984;2022-11-04T16:09:00;2.60;;;1.87;;
17993;SDS011;9122;48.406;9.984;2022-11-04T16:15:33;2.53;;;2.00;;
17993;SDS011;9122;48.406;9.984;2022-11-04T16:21:19;2.13;;;1.87;;
17993;SDS011;9122;48.406;9.984;2022-11-04T16:24:16;4.43;;;2.20;;
17993;SDS011;9122;48.406;9.984;2022-11-04T16:27:08;2.20;;;2.00;;
17993;SDS011;9122;48.406;9.984;2022-11-04T16:29:57;2.50;;;2.30;;
17993;SDS011;9122;48.406;9.984;2022-11-04T16:32:48;2.60;;;2.17;;
17993;SDS011;9122;48.406;9.984;2022-11-04T16:35:37;2.40;;;2.20;;
17993;SDS011;9122;48.406;9.984;2022-11-04T16:38:25;1.93;;;1.70;;
17993;SDS011;9122;48.406;9.984;2022-11-04T16:41:10;2.07;;;1.77;;
17993;SDS011;9122;48.406;9.984;2022-11-04T16:43:54;4.17;;;1.97;;
17993;SDS011;9122;48.406;9.984;2022-11-04T16:46:39;2.87;;;2.60;;
17993;SDS011;9122;48.406;9.984;2022-11-04T16:49:24;2.70;;;2.37;;
17993;SDS011;9122;48.406;9.984;2022-11-04T16:52:17;3.77;;;3.47;;
17993;SDS011;9122;48.406;9.984;2022-11-04T16:55:08;3.27;;;2.97;;
17993;SDS011;9122;48.406;9.984;2022-11-04T16:57:57;3.00;;;2.27;;
17993;SDS011;9122;48.406;9.984;2022-11-04T17:00:44;1.87;;;1.77;;
17993;SDS011;9122;48.406;9.984;2022-11-04T17:03:29;2.30;;;2.00;;
17993;SDS011;9122;48.406;9.984;2022-11-04T17:06:14;4.13;;;3.00;;
17993;SDS011;9122;48.406;9.984;2022-11-04T17:08:59;3.73;;;3.43;;
17993;SDS011;9122;48.406;9.984;2022-11-04T17:11:44;2.07;;;1.97;;
17993;SDS011;9122;48.406;9.984;2022-11-04T17:14:28;5.27;;;2.37;;
17993;SDS011;9122;48.406;9.984;2022-11-04T17:17:12;2.70;;;2.37;;
17993;SDS011;9122;48.406;9.984;2022-11-04T17:19:57;5.80;;;4.60;;
17993;SDS011;9122;48.406;9.984;2022-11-04T17:22:41;45.47;;;22.27;;
17993;SDS011;9122;48.406;9.984;2022-11-04T17:25:27;19.83;;;13.30;;
17993;SDS011;9122;48.406;9.984;2022-11-04T17:28:12;6.60;;;5.83;;
17993;SDS011;9122;48.406;9.984;2022-11-04T17:30:57;7.90;;;7.07;;
17993;SDS011;9122;48.406;9.984;2022-11-04T17:33:41;9.50;;;8.17;;
17993;SDS011;9122;48.406;9.984;2022-11-04T17:36:25;12.50;;;9.10;;
17993;SDS011;9122;48.406;9.984;2022-11-04T17:39:10;8.53;;;6.47;;
17993;SDS011;9122;48.406;9.984;2022-11-04T17:41:55;8.03;;;5.50;;
17993;SDS011;9122;48.406;9.984;2022-11-04T17:44:58;5.10;;;4.57;;
17993;SDS011;9122;48.406;9.984;2022-11-04T17:47:42;4.40;;;4.00;;
17993;SDS011;9122;48.406;9.984;2022-11-04T17:50:27;4.13;;;3.73;;
17993;SDS011;9122;48.406;9.984;2022-11-04T17:53:14;4.77;;;4.37;;
17993;SDS011;9122;48.406;9.984;2022-11-04T17:55:58;4.43;;;3.30;;
17993;SDS011;9122;48.406;9.984;2022-11-04T17:58:43;5.53;;;5.03;;
17993;SDS011;9122;48.406;9.984;2022-11-04T18:01:27;5.63;;;5.13;;
17993;SDS011;9122;48.406;9.984;2022-11-04T18:04:13;5.90;;;5.40;;
17993;SDS011;9122;48.406;9.984;2022-11-04T18:07:00;4.60;;;4.20;;
17993;SDS011;9122;48.406;9.984;2022-11-04T18:09:44;5.43;;;4.93;;
17993;SDS011;9122;48.406;9.984;2022-11-04T18:12:29;4.93;;;4.53;;
17993;SDS011;9122;48.406;9.984;2022-11-04T18:15:19;4.83;;;4.43;;
17993;SDS011;9122;48.406;9.984;2022-11-04T18:18:03;4.90;;;4.33;;
17993;SDS011;9122;48.406;9.984;2022-11-04T18:20:48;4.03;;;3.63;;
17993;SDS011;9122;48.406;9.984;2022-11-04T18:23:32;4.67;;;4.27;;
17993;SDS011;9122;48.406;9.984;2022-11-04T18:26:17;5.67;;;5.17;;
17993;SDS011;9122;48.406;9.984;2022-11-04T18:29:02;5.73;;;4.90;;
17993;SDS011;9122;48.406;9.984;2022-11-04T18:31:47;4.90;;;4.50;;
17993;SDS011;9122;48.406;9.984;2022-11-04T18:34:33;7.10;;;5.47;;
17993;SDS011;9122;48.406;9.984;2022-11-04T18:37:17;5.90;;;5.40;;
17993;SDS011;9122;48.406;9.984;2022-11-04T18:40:02;5.63;;;5.23;;
17993;SDS011;9122;48.406;9.984;2022-11-04T18:42:47;6.27;;;5.47;;
17993;SDS011;9122;48.406;9.984;2022-11-04T18:45:31;5.93;;;5.43;;
17993;SDS011;9122;48.406;9.984;2022-11-04T18:48:15;6.70;;;5.53;;
17993;SDS011;9122;48.406;9.984;2022-11-04T18:51:00;6.33;;;5.73;;
17993;SDS011;9122;48.406;9.984;2022-11-04T18:53:45;5.77;;;5.37;;
17993;SDS011;9122;48.406;9.984;2022-11-04T18:56:30;5.63;;;5.23;;
17993;SDS011;9122;48.406;9.984;2022-11-04T18:59:15;6.63;;;5.87;;
17993;SDS011;9122;48.406;9.984;2022-11-04T19:02:00;5.77;;;5.30;;
17993;SDS011;9122;48.406;9.984;2022-11-04T19:04:44;6.30;;;5.70;;
17993;SDS011;9122;48.406;9.984;2022-11-04T19:07:29;5.77;;;5.27;;
17993;SDS011;9122;48.406;9.984;2022-11-04T19:10:13;5.30;;;4.90;;
17993;SDS011;9122;48.406;9.984;2022-11-04T19:12:58;4.87;;;4.47;;
17993;SDS011;9122;48.406;9.984;2022-11-04T19:16:05;5.10;;;4.63;;
17993;SDS011;9122;48.406;9.984;2022-11-04T19:18:50;5.40;;;5.00;;
17993;SDS011;9122;48.406;9.984;2022-11-04T19:21:37;5.00;;;4.60;;
17993;SDS011;9122;48.406;9.984;2022-11-04T19:24:21;5.17;;;4.67;;
17993;SDS011;9122;48.406;9.984;2022-11-04T19:27:06;12.80;;;6.30;;
17993;SDS011;9122;48.406;9.984;2022-11-04T19:29:50;21.53;;;14.43;;
17993;SDS011;9122;48.406;9.984;2022-11-04T19:32:34;13.53;;;11.50;;
17993;SDS011;9122;48.406;9.984;2022-11-04T19:35:19;10.57;;;9.57;;
17993;SDS011;9122;48.406;9.984;2022-11-04T19:38:03;16.37;;;11.87;;